createdAt,value
2023-03-11T00:00:37.060Z,3.70
2023-03-11T00:03:05.503Z,4.15
2023-03-11T00:05:34.859Z,3.97
2023-03-11T00:08:01.929Z,3.88
2023-03-11T00:10:31.021Z,3.53
2023-03-11T00:12:58.258Z,3.90
2023-03-11T00:15:25.506Z,3.45
2023-03-11T00:17:52.020Z,3.60
2023-03-11T00:20:26.579Z,3.28
2023-03-11T00:22:53.825Z,3.85
2023-03-11T00:25:21.927Z,3.85
2023-03-11T00:27:48.323Z,4.18
2023-03-11T00:30:15.631Z,4.10
2023-03-11T00:32:42.119Z,3.90
2023-03-11T00:35:12.740Z,3.78
2023-03-11T00:37:39.204Z,3.72
2023-03-11T00:40:08.951Z,3.45
2023-03-11T00:42:35.324Z,3.67
2023-03-11T00:45:01.811Z,3.70
2023-03-11T00:47:28.234Z,3.67
2023-03-11T00:49:54.604Z,3.95
2023-03-11T00:52:20.990Z,3.85
2023-03-11T00:54:47.420Z,3.17
2023-03-11T00:57:13.936Z,3.40
2023-03-11T00:59:40.374Z,3.45
2023-03-11T01:02:06.792Z,3.60
2023-03-11T01:04:33.237Z,3.53
2023-03-11T01:06:59.806Z,3.60
2023-03-11T01:09:26.330Z,3.17
2023-03-11T01:11:54.114Z,3.50
2023-03-11T01:14:20.529Z,3.03
2023-03-11T01:16:46.982Z,3.40
2023-03-11T01:19:13.505Z,2.92
2023-03-11T01:21:40.180Z,3.20
2023-03-11T01:24:06.589Z,3.17
2023-03-11T01:26:33.028Z,2.90
2023-03-11T01:28:59.475Z,3.00
2023-03-11T01:31:25.901Z,2.85
2023-03-11T01:33:52.328Z,3.25
2023-03-11T01:36:18.722Z,2.90
2023-03-11T01:38:45.119Z,3.13
2023-03-11T01:41:12.340Z,3.17
2023-03-11T01:43:41.525Z,3.30
2023-03-11T01:46:14.542Z,3.03
2023-03-11T01:48:45.384Z,3.17
2023-03-11T01:51:12.138Z,3.03
2023-03-11T01:53:39.317Z,3.42
2023-03-11T01:56:06.142Z,3.03
2023-03-11T01:58:36.156Z,3.20
2023-03-11T02:01:02.722Z,2.90
2023-03-11T02:03:38.437Z,3.05
2023-03-11T02:06:08.259Z,3.17
2023-03-11T02:08:34.827Z,3.40
2023-03-11T02:11:02.888Z,2.97
2023-03-11T02:13:29.932Z,3.50
2023-03-11T02:15:56.334Z,3.47
2023-03-11T02:18:22.834Z,3.40
2023-03-11T02:21:10.027Z,3.30
2023-03-11T02:23:45.309Z,3.10
2023-03-11T02:26:26.016Z,3.72
2023-03-11T02:28:52.614Z,3.72
2023-03-11T02:31:19.483Z,3.38
2023-03-11T02:33:46.685Z,3.35
2023-03-11T02:36:39.585Z,3.92
2023-03-11T02:41:33.950Z,5.07
2023-03-11T02:44:01.656Z,4.57
2023-03-11T02:46:28.167Z,4.25
2023-03-11T02:48:56.183Z,5.10
2023-03-11T02:51:22.559Z,5.85
2023-03-11T02:53:52.181Z,5.32
2023-03-11T02:56:18.607Z,6.00
2023-03-11T02:58:44.995Z,6.53
2023-03-11T03:01:11.398Z,6.63
2023-03-11T03:03:37.861Z,6.40
2023-03-11T03:06:04.425Z,5.97
2023-03-11T03:08:30.795Z,5.97
2023-03-11T03:10:57.192Z,5.90
2023-03-11T03:13:23.566Z,5.50
2023-03-11T03:15:49.926Z,6.15
2023-03-11T03:18:16.296Z,6.35
2023-03-11T03:20:42.721Z,6.68
2023-03-11T03:23:09.093Z,6.68
2023-03-11T03:25:35.527Z,7.03
2023-03-11T03:28:01.916Z,7.60
2023-03-11T03:30:29.321Z,7.03
2023-03-11T03:32:56.102Z,6.00
2023-03-11T03:35:22.455Z,6.50
2023-03-11T03:37:48.819Z,6.43
2023-03-11T03:40:15.355Z,5.25
2023-03-11T03:42:41.722Z,4.38
2023-03-11T03:45:08.840Z,5.53
2023-03-11T03:47:36.084Z,5.32
2023-03-11T03:50:07.550Z,5.80
2023-03-11T03:52:35.556Z,5.60
2023-03-11T03:55:02.232Z,5.30
2023-03-11T03:57:29.576Z,5.45
2023-03-11T03:59:56.129Z,4.70
2023-03-11T04:02:22.586Z,4.78
2023-03-11T04:04:49.179Z,4.97
2023-03-11T04:07:15.708Z,5.57
2023-03-11T04:09:42.937Z,4.88
2023-03-11T04:12:17.381Z,5.35
2023-03-11T04:14:44.352Z,5.13
2023-03-11T04:17:12.640Z,5.60
2023-03-11T04:19:39.046Z,5.07
2023-03-11T04:22:05.572Z,5.15
2023-03-11T04:24:31.999Z,5.65
2023-03-11T04:26:58.376Z,5.43
2023-03-11T04:29:24.743Z,5.85
2023-03-11T04:31:51.118Z,5.22
2023-03-11T04:34:17.477Z,6.00
2023-03-11T04:36:43.904Z,6.90
2023-03-11T04:39:10.301Z,6.30
2023-03-11T04:41:37.184Z,5.97
2023-03-11T04:44:03.558Z,6.95
2023-03-11T04:46:29.975Z,6.82
2023-03-11T04:48:56.538Z,6.32
2023-03-11T04:51:22.951Z,6.72
2023-03-11T04:53:49.319Z,6.95
2023-03-11T04:56:15.734Z,6.25
2023-03-11T04:58:42.126Z,6.90
2023-03-11T05:01:08.523Z,6.85
2023-03-11T05:03:34.962Z,6.05
2023-03-11T05:06:01.388Z,5.93
2023-03-11T05:08:27.759Z,5.93
2023-03-11T05:10:54.180Z,5.60
2023-03-11T05:13:20.941Z,5.30
2023-03-11T05:15:47.754Z,4.68
2023-03-11T05:18:14.723Z,5.28
2023-03-11T05:20:41.150Z,4.57
2023-03-11T05:23:07.546Z,4.28
2023-03-11T05:25:35.316Z,4.07
2023-03-11T05:28:01.683Z,4.50
2023-03-11T05:30:28.050Z,4.07
2023-03-11T05:32:56.349Z,3.63
2023-03-11T05:35:23.077Z,3.42
2023-03-11T05:37:53.518Z,3.63
2023-03-11T05:40:20.134Z,3.20
2023-03-11T05:42:46.819Z,3.40
2023-03-11T05:45:13.217Z,3.45
2023-03-11T05:47:42.094Z,3.75
2023-03-11T05:50:09.897Z,3.58
2023-03-11T05:52:36.288Z,2.78
2023-03-11T05:55:04.028Z,3.08
2023-03-11T05:57:30.399Z,2.85
2023-03-11T05:59:56.811Z,2.80
2023-03-11T06:02:23.345Z,3.15
2023-03-11T06:04:49.900Z,2.80
2023-03-11T06:07:16.410Z,3.38
2023-03-11T06:09:42.786Z,3.00
2023-03-11T06:12:09.182Z,3.20
2023-03-11T06:14:35.628Z,2.85
2023-03-11T06:17:02.021Z,3.03
2023-03-11T06:19:28.742Z,3.03
2023-03-11T06:21:55.194Z,3.10
2023-03-11T06:24:21.609Z,2.80
2023-03-11T06:26:51.483Z,2.78
2023-03-11T06:29:17.875Z,2.78
2023-03-11T06:31:44.316Z,2.72
2023-03-11T06:34:11.588Z,2.60
2023-03-11T06:36:38.022Z,3.17
2023-03-11T06:39:04.532Z,3.35
2023-03-11T06:41:34.373Z,2.92
2023-03-11T06:44:00.855Z,2.80
2023-03-11T06:46:27.312Z,2.85
2023-03-11T06:48:54.299Z,3.10
2023-03-11T06:51:21.400Z,2.65
2023-03-11T06:53:52.306Z,2.55
2023-03-11T06:56:19.157Z,2.47
2023-03-11T06:58:45.762Z,2.80
2023-03-11T07:01:14.774Z,2.53
2023-03-11T07:03:41.967Z,2.63
2023-03-11T07:06:13.970Z,2.58
2023-03-11T07:08:40.454Z,2.88
2023-03-11T07:11:16.514Z,2.17
2023-03-11T07:13:43.049Z,3.10
2023-03-11T07:16:15.601Z,2.90
2023-03-11T07:18:43.419Z,3.00
2023-03-11T07:21:12.014Z,2.55
2023-03-11T07:23:38.474Z,2.88
2023-03-11T07:26:05.086Z,3.30
2023-03-11T07:28:31.614Z,2.80
2023-03-11T07:30:58.445Z,2.58
2023-03-11T07:33:25.054Z,2.33
2023-03-11T07:35:52.215Z,2.45
2023-03-11T07:38:19.886Z,2.40
2023-03-11T07:40:46.566Z,2.40
2023-03-11T07:43:12.963Z,2.47
2023-03-11T07:45:39.355Z,2.58
2023-03-11T07:48:05.957Z,2.85
2023-03-11T07:50:32.314Z,2.50
2023-03-11T07:52:58.708Z,2.42
2023-03-11T07:55:25.189Z,3.92
2023-03-11T07:57:51.694Z,2.30
2023-03-11T08:00:18.557Z,4.65
2023-03-11T08:02:45.004Z,2.78
2023-03-11T08:05:11.504Z,2.22
2023-03-11T08:07:37.910Z,3.05
2023-03-11T08:10:04.428Z,2.33
2023-03-11T08:12:30.814Z,4.05
2023-03-11T08:14:57.255Z,4.78
2023-03-11T08:17:23.663Z,6.43
2023-03-11T08:19:50.193Z,3.70
2023-03-11T08:22:16.549Z,3.20
2023-03-11T08:24:42.977Z,2.85
2023-03-11T08:27:09.665Z,2.65
2023-03-11T08:29:36.292Z,8.75
2023-03-11T08:32:03.290Z,3.35
2023-03-11T08:34:29.783Z,2.70
2023-03-11T08:36:56.436Z,4.18
2023-03-11T08:39:23.897Z,2.22
2023-03-11T08:41:50.309Z,3.88
2023-03-11T08:44:16.710Z,2.40
2023-03-11T08:46:43.252Z,2.30
2023-03-11T08:49:09.959Z,2.25
2023-03-11T08:51:36.733Z,2.10
2023-03-11T08:54:03.751Z,2.05
2023-03-11T08:56:30.304Z,2.65
2023-03-11T08:58:57.090Z,3.25
2023-03-11T09:01:23.640Z,2.90
2023-03-11T09:03:50.162Z,2.80
2023-03-11T09:06:16.997Z,2.13
2023-03-11T09:08:44.413Z,1.90
2023-03-11T09:11:13.370Z,2.50
2023-03-11T09:13:41.048Z,2.30
2023-03-11T09:16:15.911Z,2.10
2023-03-11T09:18:42.401Z,2.40
2023-03-11T09:21:09.714Z,1.90
2023-03-11T09:23:36.115Z,2.50
2023-03-11T09:26:02.480Z,2.15
2023-03-11T09:28:29.223Z,3.10
2023-03-11T09:30:55.653Z,2.75
2023-03-11T09:33:22.039Z,2.33
2023-03-11T09:35:48.582Z,2.10
2023-03-11T09:38:15.042Z,2.10
2023-03-11T09:41:26.247Z,2.20
2023-03-11T09:44:08.575Z,2.60
2023-03-11T09:46:57.672Z,2.38
2023-03-11T09:49:45.974Z,2.33
2023-03-11T09:52:15.287Z,2.30
2023-03-11T09:54:48.040Z,2.30
2023-03-11T09:57:33.392Z,1.90
2023-03-11T10:00:01.945Z,2.10
2023-03-11T10:02:28.603Z,2.22
2023-03-11T10:05:13.320Z,1.92
2023-03-11T10:07:41.428Z,1.98
2023-03-11T10:10:13.288Z,2.00
2023-03-11T10:13:00.626Z,2.35
2023-03-11T10:15:48.279Z,1.95
2023-03-11T10:18:29.890Z,2.05
2023-03-11T10:21:12.196Z,2.28
2023-03-11T10:23:47.923Z,1.98
2023-03-11T10:26:23.795Z,2.20
2023-03-11T10:28:54.556Z,1.92
2023-03-11T10:31:31.594Z,1.73
2023-03-11T10:34:37.894Z,2.47
2023-03-11T10:37:14.640Z,2.10
2023-03-11T10:39:41.183Z,2.03
2023-03-11T10:42:14.049Z,1.83
2023-03-11T10:44:42.098Z,1.70
2023-03-11T10:47:23.135Z,2.90
2023-03-11T10:49:50.145Z,2.20
2023-03-11T10:52:16.515Z,2.50
2023-03-11T10:54:46.314Z,2.22
2023-03-11T10:57:26.394Z,2.08
2023-03-11T10:59:55.071Z,3.25
2023-03-11T11:02:23.340Z,2.22
2023-03-11T11:05:22.571Z,2.47
2023-03-11T11:07:50.972Z,2.10
2023-03-11T11:10:18.971Z,1.88
2023-03-11T11:13:07.743Z,2.15
2023-03-11T11:15:40.883Z,2.30
2023-03-11T11:18:25.462Z,1.90
2023-03-11T11:20:55.139Z,2.30
2023-03-11T11:23:36.086Z,1.75
2023-03-11T11:26:05.366Z,1.63
2023-03-11T11:28:33.440Z,1.90
2023-03-11T11:31:04.931Z,1.70
2023-03-11T11:33:40.557Z,2.00
2023-03-11T11:36:12.820Z,1.90
2023-03-11T11:38:39.675Z,1.75
2023-03-11T11:41:06.698Z,1.80
2023-03-11T11:43:42.088Z,2.05
2023-03-11T11:46:35.298Z,1.80
2023-03-11T11:49:21.114Z,1.95
2023-03-11T11:51:58.632Z,1.63
2023-03-11T11:54:29.694Z,1.80
2023-03-11T11:56:56.720Z,1.42
2023-03-11T11:59:23.550Z,1.70
2023-03-11T12:02:26.767Z,1.42
2023-03-11T12:04:57.335Z,1.60
2023-03-11T12:07:53.021Z,1.58
2023-03-11T12:10:44.927Z,1.60
2023-03-11T12:13:39.324Z,1.52
2023-03-11T12:16:23.896Z,1.55
2023-03-11T12:18:54.896Z,1.75
2023-03-11T12:21:42.155Z,2.00
2023-03-11T12:24:36.418Z,1.40
2023-03-11T12:27:09.171Z,1.58
2023-03-11T12:29:40.496Z,1.50
2023-03-11T12:32:07.273Z,1.55
2023-03-11T12:34:35.277Z,1.55
2023-03-11T12:37:03.334Z,1.73
2023-03-11T12:39:32.339Z,1.30
2023-03-11T12:42:25.266Z,2.13
2023-03-11T12:47:19.293Z,1.50
2023-03-11T12:49:48.059Z,1.77
2023-03-11T12:52:14.298Z,1.80
2023-03-11T12:54:45.585Z,1.60
2023-03-11T12:57:18.294Z,1.63
2023-03-11T13:00:18.095Z,1.77
2023-03-11T13:03:19.006Z,1.30
2023-03-11T13:05:57.764Z,1.65
2023-03-11T13:08:27.457Z,1.15
2023-03-11T13:10:55.245Z,1.75
2023-03-11T13:13:30.093Z,1.58
2023-03-11T13:15:57.520Z,1.25
2023-03-11T13:18:28.412Z,1.70
2023-03-11T13:21:02.236Z,1.27
2023-03-11T13:23:37.242Z,1.30
2023-03-11T13:26:09.768Z,1.40
2023-03-11T13:31:20.877Z,1.77
2023-03-11T13:34:01.304Z,1.75
2023-03-11T13:36:50.067Z,1.75
2023-03-11T13:39:52.956Z,1.63
2023-03-11T13:42:42.636Z,1.50
2023-03-11T13:45:25.224Z,1.50
2023-03-11T13:47:53.661Z,1.35
2023-03-11T13:50:28.255Z,1.40
2023-03-11T13:52:54.798Z,1.67
2023-03-11T13:55:28.766Z,1.83
2023-03-11T13:57:56.756Z,2.20
2023-03-11T14:00:28.409Z,1.50
2023-03-11T14:02:56.893Z,1.40
2023-03-11T14:05:32.469Z,1.27
2023-03-11T14:08:22.593Z,1.38
2023-03-11T14:11:16.903Z,1.25
2023-03-11T14:13:45.693Z,1.40
2023-03-11T14:16:25.020Z,1.40
2023-03-11T14:19:15.056Z,1.27
2023-03-11T14:21:42.737Z,1.30
2023-03-11T14:24:23.691Z,1.20
2023-03-11T14:26:55.105Z,1.48
2023-03-11T14:29:31.238Z,1.45
2023-03-11T14:31:57.755Z,1.60
2023-03-11T14:34:27.552Z,1.50
2023-03-11T14:36:58.938Z,1.40
2023-03-11T14:39:38.971Z,1.30
2023-03-11T14:42:43.574Z,1.80
2023-03-11T14:45:12.421Z,1.50
2023-03-11T14:47:46.595Z,1.42
2023-03-11T14:50:17.020Z,1.52
2023-03-11T14:52:46.669Z,1.60
2023-03-11T14:55:15.960Z,1.40
2023-03-11T14:57:57.819Z,1.73
2023-03-11T15:00:26.769Z,1.30
2023-03-11T15:03:03.323Z,1.27
2023-03-11T15:06:15.630Z,1.60
2023-03-11T15:08:45.861Z,1.48
2023-03-11T15:11:12.133Z,1.10
2023-03-11T15:13:44.663Z,1.20
2023-03-11T15:19:28.329Z,1.20
2023-03-11T15:21:58.495Z,1.52
2023-03-11T15:24:29.576Z,1.63
2023-03-11T15:26:58.677Z,1.60
2023-03-11T15:29:25.790Z,1.70
2023-03-11T15:31:52.179Z,1.40
2023-03-11T15:34:18.443Z,1.52
2023-03-11T15:36:55.455Z,1.65
2023-03-11T15:39:43.758Z,1.50
2023-03-11T15:42:15.480Z,1.52
2023-03-11T15:44:43.816Z,1.70
2023-03-11T15:47:15.016Z,1.80
2023-03-11T15:49:41.609Z,1.38
2023-03-11T15:52:08.882Z,1.85
2023-03-11T15:54:35.347Z,1.90
2023-03-11T15:57:05.087Z,1.85
2023-03-11T15:59:31.522Z,2.10
2023-03-11T16:01:59.429Z,2.03
2023-03-11T16:04:26.040Z,1.50
2023-03-11T16:07:06.964Z,1.73
2023-03-11T16:09:34.532Z,2.17
2023-03-11T16:12:01.841Z,2.22
2023-03-11T16:14:28.251Z,2.30
2023-03-11T16:16:54.639Z,1.98
2023-03-11T16:19:21.106Z,2.20
2023-03-11T16:21:50.179Z,2.10
2023-03-11T16:24:19.212Z,2.10
2023-03-11T16:26:45.752Z,1.55
2023-03-11T16:29:18.942Z,1.90
2023-03-11T16:31:46.684Z,2.00
2023-03-11T16:34:13.184Z,1.95
2023-03-11T16:36:39.647Z,1.77
2023-03-11T16:39:08.931Z,1.90
2023-03-11T16:41:43.855Z,2.13
2023-03-11T16:44:10.462Z,1.95
2023-03-11T16:46:36.993Z,2.30
2023-03-11T16:49:03.811Z,1.65
2023-03-11T16:51:30.166Z,2.17
2023-03-11T16:53:56.727Z,2.30
2023-03-11T16:56:23.105Z,2.40
2023-03-11T16:58:49.502Z,2.60
2023-03-11T17:01:17.004Z,2.20
2023-03-11T17:03:44.529Z,2.35
2023-03-11T17:06:10.917Z,2.30
2023-03-11T17:08:37.300Z,2.25
2023-03-11T17:11:03.755Z,2.28
2023-03-11T17:13:30.163Z,2.72
2023-03-11T17:16:00.866Z,2.90
2023-03-11T17:18:27.669Z,2.88
2023-03-11T17:20:54.100Z,2.20
2023-03-11T17:23:20.545Z,2.33
2023-03-11T17:25:46.926Z,2.95
2023-03-11T17:28:13.391Z,3.10
2023-03-11T17:30:45.229Z,3.47
2023-03-11T17:33:11.647Z,3.00
2023-03-11T17:35:38.288Z,2.47
2023-03-11T17:38:04.698Z,3.00
2023-03-11T17:40:32.545Z,2.40
2023-03-11T17:42:59.013Z,2.33
2023-03-11T17:45:25.367Z,2.55
2023-03-11T17:47:51.744Z,2.17
2023-03-11T17:50:18.202Z,2.70
2023-03-11T17:52:46.493Z,2.67
2023-03-11T17:55:13.145Z,2.40
2023-03-11T17:57:45.505Z,3.00
2023-03-11T18:00:14.599Z,2.80
2023-03-11T18:02:41.017Z,2.90
2023-03-11T18:05:07.781Z,3.40
2023-03-11T18:07:38.784Z,3.38
2023-03-11T18:10:06.454Z,3.10
2023-03-11T18:12:32.822Z,3.03
2023-03-11T18:14:59.302Z,3.00
2023-03-11T18:17:25.677Z,2.65
2023-03-11T18:19:52.072Z,3.05
2023-03-11T18:22:18.591Z,3.22
2023-03-11T18:24:45.528Z,2.90
2023-03-11T18:27:11.903Z,3.08
2023-03-11T18:29:38.304Z,2.80
2023-03-11T18:32:04.874Z,3.20
2023-03-11T18:34:31.646Z,2.75
2023-03-11T18:36:58.043Z,2.60
2023-03-11T18:39:27.586Z,2.17
2023-03-11T18:41:54.055Z,2.58
2023-03-11T18:44:21.399Z,2.28
2023-03-11T18:46:47.764Z,2.45
2023-03-11T18:49:14.278Z,2.80
2023-03-11T18:51:41.038Z,2.75
2023-03-11T18:54:07.658Z,2.28
2023-03-11T18:56:34.201Z,3.35
2023-03-11T18:59:01.259Z,2.47
2023-03-11T19:01:28.105Z,4.20
2023-03-11T19:03:58.932Z,7.20
2023-03-11T19:06:26.906Z,4.80
2023-03-11T19:08:53.785Z,3.10
2023-03-11T19:11:21.737Z,2.30
2023-03-11T19:13:48.386Z,2.65
2023-03-11T19:16:17.541Z,2.45
2023-03-11T19:18:44.422Z,2.97
2023-03-11T19:21:15.545Z,3.13
2023-03-11T19:23:42.466Z,2.67
2023-03-11T19:26:09.463Z,2.90
2023-03-11T19:28:36.067Z,3.20
2023-03-11T19:31:02.909Z,2.92
2023-03-11T19:33:29.415Z,2.75
2023-03-11T19:35:58.542Z,2.90
2023-03-11T19:38:25.407Z,2.70
2023-03-11T19:41:01.196Z,3.17
2023-03-11T19:43:28.466Z,3.65
2023-03-11T19:45:55.281Z,3.17
2023-03-11T19:48:21.769Z,3.28
2023-03-11T19:50:48.921Z,3.38
2023-03-11T19:53:16.179Z,3.88
2023-03-11T19:55:44.241Z,3.35
2023-03-11T19:58:10.690Z,3.85
2023-03-11T20:00:37.157Z,3.42
2023-03-11T20:03:03.574Z,3.72
2023-03-11T20:05:29.977Z,4.00
2023-03-11T20:07:56.389Z,4.25
2023-03-11T20:10:22.833Z,4.32
2023-03-11T20:13:01.445Z,4.63
2023-03-11T20:15:28.884Z,3.70
2023-03-11T20:17:55.330Z,4.65
2023-03-11T20:20:21.803Z,4.47
2023-03-11T20:22:48.505Z,4.32
2023-03-11T20:25:16.055Z,5.10
2023-03-11T20:27:43.012Z,8.32
2023-03-11T20:30:10.010Z,7.25
2023-03-11T20:32:36.476Z,6.88
2023-03-11T20:35:03.366Z,5.45
2023-03-11T20:37:30.623Z,5.00
2023-03-11T20:39:57.219Z,4.43
2023-03-11T20:42:24.085Z,5.18
2023-03-11T20:44:53.988Z,4.03
2023-03-11T20:47:20.804Z,4.50
2023-03-11T20:49:47.334Z,4.65
2023-03-11T20:52:13.686Z,4.90
2023-03-11T20:54:40.125Z,4.00
2023-03-11T20:57:06.686Z,4.30
2023-03-11T20:59:33.256Z,4.22
2023-03-11T21:01:59.861Z,4.35
2023-03-11T21:04:26.405Z,4.28
2023-03-11T21:06:54.704Z,4.38
2023-03-11T21:09:21.309Z,4.60
2023-03-11T21:11:47.757Z,4.53
2023-03-11T21:14:17.780Z,3.90
2023-03-11T21:16:45.447Z,4.60
2023-03-11T21:19:13.341Z,4.55
2023-03-11T21:21:40.140Z,4.38
2023-03-11T21:24:07.123Z,4.82
2023-03-11T21:26:33.708Z,4.95
2023-03-11T21:29:00.445Z,5.13
2023-03-11T21:31:29.257Z,5.97
2023-03-11T21:33:57.587Z,5.57
2023-03-11T21:36:24.120Z,5.00
2023-03-11T21:38:51.212Z,4.80
2023-03-11T21:41:26.219Z,4.95
2023-03-11T21:43:54.084Z,5.00
2023-03-11T21:46:23.666Z,4.18
2023-03-11T21:48:50.275Z,5.00
2023-03-11T21:51:17.647Z,4.68
2023-03-11T21:53:44.333Z,4.60
2023-03-11T21:56:10.870Z,4.47
2023-03-11T21:58:37.338Z,4.35
2023-03-11T22:01:03.916Z,4.85
2023-03-11T22:03:30.817Z,4.70
2023-03-11T22:05:59.167Z,4.65
2023-03-11T22:08:26.027Z,4.20
2023-03-11T22:10:53.100Z,4.28
2023-03-11T22:13:21.118Z,4.38
2023-03-11T22:15:47.816Z,4.47
2023-03-11T22:18:17.551Z,4.07
2023-03-11T22:20:44.416Z,3.90
2023-03-11T22:23:10.839Z,4.75
2023-03-11T22:25:37.261Z,4.53
2023-03-11T22:28:04.156Z,4.93
2023-03-11T22:30:30.643Z,5.38
2023-03-11T22:32:57.123Z,5.78
2023-03-11T22:35:23.557Z,4.95
2023-03-11T22:37:49.914Z,4.80
2023-03-11T22:40:16.355Z,3.88
2023-03-11T22:42:42.705Z,4.00
2023-03-11T22:45:09.317Z,4.20
2023-03-11T22:47:35.810Z,3.55
2023-03-11T22:50:02.260Z,3.80
2023-03-11T22:52:28.659Z,4.00
2023-03-11T22:54:55.151Z,4.10
2023-03-11T22:57:21.681Z,3.50
2023-03-11T22:59:48.048Z,4.25
2023-03-11T23:02:14.473Z,4.13
2023-03-11T23:04:44.440Z,3.90
2023-03-11T23:07:10.879Z,4.07
2023-03-11T23:09:38.094Z,4.00
2023-03-11T23:12:04.746Z,4.20
2023-03-11T23:14:44.040Z,4.00
2023-03-11T23:17:11.228Z,4.25
2023-03-11T23:19:37.686Z,4.72
2023-03-11T23:22:04.349Z,4.43
2023-03-11T23:24:30.768Z,4.75
2023-03-11T23:26:57.222Z,4.75
2023-03-11T23:29:23.642Z,4.53
2023-03-11T23:31:50.014Z,5.25
2023-03-11T23:34:16.388Z,4.90
2023-03-11T23:36:42.788Z,4.20
2023-03-11T23:39:09.140Z,4.75
2023-03-11T23:41:37.730Z,4.47
2023-03-11T23:44:04.937Z,4.70
2023-03-11T23:46:31.689Z,4.72
2023-03-11T23:48:58.558Z,5.07
2023-03-11T23:51:24.994Z,4.20
2023-03-11T23:53:51.385Z,4.50
2023-03-11T23:56:18.657Z,4.65
2023-03-11T23:58:45.760Z,4.45
